sensor_id;sensor_type;location;lat;lon;timestamp;P1;durP1;ratioP1;P2;durP2;ratioP2
66429;SDS011;53242;51.694;10.006;2022-07-29T00:00:47;7.80;;;1.15;;
66429;SDS011;53242;51.694;10.006;2022-07-29T00:03:09;8.98;;;1.40;;
66429;SDS011;53242;51.694;10.006;2022-07-29T00:05:32;5.93;;;1.40;;
66429;SDS011;53242;51.694;10.006;2022-07-29T00:07:55;5.20;;;1.30;;
66429;SDS011;53242;51.694;10.006;2022-07-29T00:10:17;4.03;;;1.20;;
66429;SDS011;53242;51.694;10.006;2022-07-29T00:12:40;5.45;;;1.17;;
66429;SDS011;53242;51.694;10.006;2022-07-29T00:15:02;8.90;;;1.58;;
66429;SDS011;53242;51.694;10.006;2022-07-29T00:17:26;3.95;;;1.30;;
66429;SDS011;53242;51.694;10.006;2022-07-29T00:19:48;5.88;;;1.35;;
66429;SDS011;53242;51.694;10.006;2022-07-29T00:22:11;2.53;;;1.17;;
66429;SDS011;53242;51.694;10.006;2022-07-29T00:24:33;3.35;;;1.13;;
66429;SDS011;53242;51.694;10.006;2022-07-29T00:26:55;4.10;;;1.20;;
66429;SDS011;53242;51.694;10.006;2022-07-29T00:29:18;2.83;;;1.17;;
66429;SDS011;53242;51.694;10.006;2022-07-29T00:31:41;6.10;;;1.40;;
66429;SDS011;53242;51.694;10.006;2022-07-29T00:34:03;3.72;;;1.38;;
66429;SDS011;53242;51.694;10.006;2022-07-29T00:36:25;6.05;;;1.23;;
66429;SDS011;53242;51.694;10.006;2022-07-29T00:38:49;6.28;;;1.48;;
66429;SDS011;53242;51.694;10.006;2022-07-29T00:41:12;2.10;;;1.20;;
66429;SDS011;53242;51.694;10.006;2022-07-29T00:43:35;5.85;;;1.10;;
66429;SDS011;53242;51.694;10.006;2022-07-29T00:45:57;2.65;;;1.13;;
66429;SDS011;53242;51.694;10.006;2022-07-29T00:48:20;3.85;;;1.35;;
66429;SDS011;53242;51.694;10.006;2022-07-29T00:50:42;3.88;;;1.20;;
66429;SDS011;53242;51.694;10.006;2022-07-29T00:53:05;3.83;;;1.20;;
66429;SDS011;53242;51.694;10.006;2022-07-29T00:57:52;3.28;;;1.23;;
66429;SDS011;53242;51.694;10.006;2022-07-29T01:00:23;4.85;;;1.13;;
66429;SDS011;53242;51.694;10.006;2022-07-29T01:02:47;3.60;;;1.20;;
66429;SDS011;53242;51.694;10.006;2022-07-29T01:05:10;2.80;;;1.20;;
66429;SDS011;53242;51.694;10.006;2022-07-29T01:09:58;3.30;;;1.10;;
66429;SDS011;53242;51.694;10.006;2022-07-29T01:12:24;5.43;;;1.30;;
66429;SDS011;53242;51.694;10.006;2022-07-29T01:14:47;3.75;;;1.20;;
66429;SDS011;53242;51.694;10.006;2022-07-29T01:17:19;3.05;;;1.08;;
66429;SDS011;53242;51.694;10.006;2022-07-29T01:25:44;6.28;;;1.27;;
66429;SDS011;53242;51.694;10.006;2022-07-29T01:30:31;3.65;;;1.10;;
66429;SDS011;53242;51.694;10.006;2022-07-29T01:32:59;4.18;;;1.48;;
66429;SDS011;53242;51.694;10.006;2022-07-29T01:35:25;4.15;;;1.30;;
66429;SDS011;53242;51.694;10.006;2022-07-29T01:40:43;4.68;;;1.27;;
66429;SDS011;53242;51.694;10.006;2022-07-29T01:43:15;3.60;;;1.40;;
66429;SDS011;53242;51.694;10.006;2022-07-29T01:45:56;3.50;;;1.20;;
66429;SDS011;53242;51.694;10.006;2022-07-29T01:48:45;4.25;;;1.05;;
66429;SDS011;53242;51.694;10.006;2022-07-29T01:51:21;3.70;;;1.10;;
66429;SDS011;53242;51.694;10.006;2022-07-29T01:54:03;3.53;;;1.58;;
66429;SDS011;53242;51.694;10.006;2022-07-29T01:56:43;4.85;;;1.42;;
66429;SDS011;53242;51.694;10.006;2022-07-29T01:59:09;3.65;;;1.20;;
66429;SDS011;53242;51.694;10.006;2022-07-29T02:01:33;3.22;;;1.13;;
66429;SDS011;53242;51.694;10.006;2022-07-29T02:03:58;5.47;;;1.48;;
66429;SDS011;53242;51.694;10.006;2022-07-29T02:06:24;4.47;;;1.23;;
66429;SDS011;53242;51.694;10.006;2022-07-29T02:08:48;4.88;;;1.33;;
66429;SDS011;53242;51.694;10.006;2022-07-29T02:11:13;5.70;;;1.30;;
66429;SDS011;53242;51.694;10.006;2022-07-29T02:13:36;3.08;;;1.10;;
66429;SDS011;53242;51.694;10.006;2022-07-29T02:15:59;3.95;;;1.23;;
66429;SDS011;53242;51.694;10.006;2022-07-29T02:18:24;4.68;;;1.40;;
66429;SDS011;53242;51.694;10.006;2022-07-29T02:20:50;3.08;;;1.20;;
66429;SDS011;53242;51.694;10.006;2022-07-29T02:23:20;3.10;;;1.30;;
66429;SDS011;53242;51.694;10.006;2022-07-29T02:25:43;3.63;;;1.40;;
66429;SDS011;53242;51.694;10.006;2022-07-29T02:28:07;4.22;;;1.13;;
66429;SDS011;53242;51.694;10.006;2022-07-29T02:30:29;5.78;;;1.00;;
66429;SDS011;53242;51.694;10.006;2022-07-29T02:32:53;3.50;;;1.40;;
66429;SDS011;53242;51.694;10.006;2022-07-29T02:35:16;2.45;;;1.10;;
66429;SDS011;53242;51.694;10.006;2022-07-29T02:37:40;5.45;;;1.20;;
66429;SDS011;53242;51.694;10.006;2022-07-29T02:40:05;4.22;;;1.00;;
66429;SDS011;53242;51.694;10.006;2022-07-29T02:42:32;4.20;;;1.30;;
66429;SDS011;53242;51.694;10.006;2022-07-29T02:44:55;2.35;;;1.10;;
66429;SDS011;53242;51.694;10.006;2022-07-29T02:52:40;2.40;;;1.02;;
66429;SDS011;53242;51.694;10.006;2022-07-29T02:55:13;3.38;;;1.13;;
66429;SDS011;53242;51.694;10.006;2022-07-29T02:58:02;4.40;;;1.10;;
66429;SDS011;53242;51.694;10.006;2022-07-29T03:00:31;4.97;;;1.17;;
66429;SDS011;53242;51.694;10.006;2022-07-29T03:03:00;5.35;;;1.23;;
66429;SDS011;53242;51.694;10.006;2022-07-29T03:05:25;5.15;;;1.20;;
66429;SDS011;53242;51.694;10.006;2022-07-29T03:07:51;4.47;;;1.25;;
66429;SDS011;53242;51.694;10.006;2022-07-29T03:10:19;6.03;;;1.50;;
66429;SDS011;53242;51.694;10.006;2022-07-29T03:12:43;2.42;;;1.15;;
66429;SDS011;53242;51.694;10.006;2022-07-29T03:15:06;2.38;;;1.20;;
66429;SDS011;53242;51.694;10.006;2022-07-29T03:17:30;6.35;;;1.58;;
66429;SDS011;53242;51.694;10.006;2022-07-29T03:19:53;3.38;;;1.30;;
66429;SDS011;53242;51.694;10.006;2022-07-29T03:22:17;7.63;;;1.60;;
66429;SDS011;53242;51.694;10.006;2022-07-29T03:24:39;5.28;;;1.35;;
66429;SDS011;53242;51.694;10.006;2022-07-29T03:27:02;2.45;;;1.17;;
66429;SDS011;53242;51.694;10.006;2022-07-29T03:29:26;3.70;;;1.20;;
66429;SDS011;53242;51.694;10.006;2022-07-29T03:31:49;4.45;;;1.30;;
66429;SDS011;53242;51.694;10.006;2022-07-29T03:34:11;3.25;;;1.20;;
66429;SDS011;53242;51.694;10.006;2022-07-29T03:36:34;2.88;;;1.40;;
66429;SDS011;53242;51.694;10.006;2022-07-29T03:38:56;5.53;;;1.30;;
66429;SDS011;53242;51.694;10.006;2022-07-29T03:41:19;4.15;;;1.48;;
66429;SDS011;53242;51.694;10.006;2022-07-29T03:43:44;2.97;;;1.30;;
66429;SDS011;53242;51.694;10.006;2022-07-29T03:46:09;3.33;;;1.33;;
66429;SDS011;53242;51.694;10.006;2022-07-29T03:48:33;5.10;;;1.33;;
66429;SDS011;53242;51.694;10.006;2022-07-29T03:50:58;5.78;;;1.70;;
66429;SDS011;53242;51.694;10.006;2022-07-29T03:53:21;7.90;;;1.65;;
66429;SDS011;53242;51.694;10.006;2022-07-29T03:55:45;3.00;;;1.10;;
66429;SDS011;53242;51.694;10.006;2022-07-29T03:58:10;5.68;;;1.50;;
66429;SDS011;53242;51.694;10.006;2022-07-29T04:00:34;3.10;;;1.30;;
66429;SDS011;53242;51.694;10.006;2022-07-29T04:03:01;4.30;;;1.70;;
66429;SDS011;53242;51.694;10.006;2022-07-29T04:05:26;7.97;;;1.45;;
66429;SDS011;53242;51.694;10.006;2022-07-29T04:07:48;4.43;;;1.35;;
66429;SDS011;53242;51.694;10.006;2022-07-29T04:10:11;3.20;;;1.35;;
66429;SDS011;53242;51.694;10.006;2022-07-29T04:12:33;6.38;;;1.23;;
66429;SDS011;53242;51.694;10.006;2022-07-29T04:14:56;4.68;;;1.35;;
66429;SDS011;53242;51.694;10.006;2022-07-29T04:17:18;3.85;;;1.50;;
66429;SDS011;53242;51.694;10.006;2022-07-29T04:19:41;3.78;;;1.83;;
66429;SDS011;53242;51.694;10.006;2022-07-29T04:22:03;5.40;;;1.48;;
66429;SDS011;53242;51.694;10.006;2022-07-29T04:24:26;3.58;;;1.33;;
66429;SDS011;53242;51.694;10.006;2022-07-29T04:26:48;6.50;;;1.63;;
66429;SDS011;53242;51.694;10.006;2022-07-29T04:29:11;4.13;;;1.20;;
66429;SDS011;53242;51.694;10.006;2022-07-29T04:31:34;9.68;;;1.67;;
66429;SDS011;53242;51.694;10.006;2022-07-29T04:33:56;6.32;;;1.52;;
66429;SDS011;53242;51.694;10.006;2022-07-29T04:36:18;7.05;;;1.70;;
66429;SDS011;53242;51.694;10.006;2022-07-29T04:38:41;4.32;;;1.30;;
66429;SDS011;53242;51.694;10.006;2022-07-29T04:41:03;4.90;;;1.50;;
66429;SDS011;53242;51.694;10.006;2022-07-29T04:43:26;4.40;;;1.50;;
66429;SDS011;53242;51.694;10.006;2022-07-29T04:45:48;4.85;;;1.50;;
66429;SDS011;53242;51.694;10.006;2022-07-29T04:48:11;3.75;;;1.58;;
66429;SDS011;53242;51.694;10.006;2022-07-29T04:50:33;5.45;;;1.50;;
66429;SDS011;53242;51.694;10.006;2022-07-29T04:52:56;4.15;;;1.40;;
66429;SDS011;53242;51.694;10.006;2022-07-29T04:55:18;5.93;;;1.42;;
66429;SDS011;53242;51.694;10.006;2022-07-29T04:57:41;3.60;;;1.20;;
66429;SDS011;53242;51.694;10.006;2022-07-29T05:00:04;3.85;;;1.08;;
66429;SDS011;53242;51.694;10.006;2022-07-29T05:02:27;3.88;;;1.20;;
66429;SDS011;53242;51.694;10.006;2022-07-29T05:04:49;4.13;;;1.30;;
66429;SDS011;53242;51.694;10.006;2022-07-29T05:07:12;4.50;;;1.30;;
66429;SDS011;53242;51.694;10.006;2022-07-29T05:09:34;3.83;;;1.23;;
66429;SDS011;53242;51.694;10.006;2022-07-29T05:11:57;8.00;;;1.40;;
66429;SDS011;53242;51.694;10.006;2022-07-29T05:14:20;2.58;;;1.17;;
66429;SDS011;53242;51.694;10.006;2022-07-29T05:16:42;7.03;;;1.40;;
66429;SDS011;53242;51.694;10.006;2022-07-29T05:19:05;4.35;;;1.30;;
66429;SDS011;53242;51.694;10.006;2022-07-29T05:21:28;5.07;;;1.80;;
66429;SDS011;53242;51.694;10.006;2022-07-29T05:23:50;3.90;;;1.50;;
66429;SDS011;53242;51.694;10.006;2022-07-29T05:26:13;5.38;;;1.30;;
66429;SDS011;53242;51.694;10.006;2022-07-29T05:28:35;2.03;;;1.33;;
66429;SDS011;53242;51.694;10.006;2022-07-29T05:30:58;3.65;;;1.42;;
66429;SDS011;53242;51.694;10.006;2022-07-29T05:33:20;4.32;;;1.40;;
66429;SDS011;53242;51.694;10.006;2022-07-29T05:35:42;4.55;;;1.50;;
66429;SDS011;53242;51.694;10.006;2022-07-29T05:38:05;3.13;;;1.33;;
66429;SDS011;53242;51.694;10.006;2022-07-29T05:40:30;5.45;;;1.48;;
66429;SDS011;53242;51.694;10.006;2022-07-29T05:42:53;3.00;;;1.20;;
66429;SDS011;53242;51.694;10.006;2022-07-29T05:45:15;4.63;;;1.23;;
66429;SDS011;53242;51.694;10.006;2022-07-29T05:47:38;6.10;;;1.35;;
66429;SDS011;53242;51.694;10.006;2022-07-29T05:50:00;7.78;;;1.48;;
66429;SDS011;53242;51.694;10.006;2022-07-29T05:52:22;5.93;;;1.45;;
66429;SDS011;53242;51.694;10.006;2022-07-29T05:54:45;3.40;;;1.33;;
66429;SDS011;53242;51.694;10.006;2022-07-29T05:57:07;5.70;;;1.20;;
66429;SDS011;53242;51.694;10.006;2022-07-29T05:59:30;4.32;;;1.48;;
66429;SDS011;53242;51.694;10.006;2022-07-29T06:01:53;4.10;;;1.30;;
66429;SDS011;53242;51.694;10.006;2022-07-29T06:04:16;4.88;;;1.40;;
66429;SDS011;53242;51.694;10.006;2022-07-29T06:06:38;6.65;;;1.40;;
66429;SDS011;53242;51.694;10.006;2022-07-29T06:09:01;3.60;;;1.40;;
66429;SDS011;53242;51.694;10.006;2022-07-29T06:11:24;4.82;;;1.38;;
66429;SDS011;53242;51.694;10.006;2022-07-29T06:13:47;4.55;;;1.60;;
66429;SDS011;53242;51.694;10.006;2022-07-29T06:16:09;4.80;;;1.20;;
66429;SDS011;53242;51.694;10.006;2022-07-29T06:18:32;4.50;;;1.40;;
66429;SDS011;53242;51.694;10.006;2022-07-29T06:20:54;6.93;;;1.80;;
66429;SDS011;53242;51.694;10.006;2022-07-29T06:23:17;5.78;;;1.33;;
66429;SDS011;53242;51.694;10.006;2022-07-29T06:25:40;4.68;;;1.52;;
66429;SDS011;53242;51.694;10.006;2022-07-29T06:28:03;4.97;;;1.60;;
66429;SDS011;53242;51.694;10.006;2022-07-29T06:30:25;6.05;;;1.50;;
66429;SDS011;53242;51.694;10.006;2022-07-29T06:32:48;10.13;;;1.75;;
66429;SDS011;53242;51.694;10.006;2022-07-29T06:35:11;7.70;;;1.63;;
66429;SDS011;53242;51.694;10.006;2022-07-29T06:37:33;6.43;;;1.77;;
66429;SDS011;53242;51.694;10.006;2022-07-29T06:39:57;4.35;;;1.77;;
66429;SDS011;53242;51.694;10.006;2022-07-29T06:42:41;5.75;;;1.70;;
66429;SDS011;53242;51.694;10.006;2022-07-29T06:45:07;8.00;;;1.48;;
66429;SDS011;53242;51.694;10.006;2022-07-29T06:47:29;10.27;;;1.80;;
66429;SDS011;53242;51.694;10.006;2022-07-29T06:49:52;7.50;;;1.50;;
66429;SDS011;53242;51.694;10.006;2022-07-29T06:52:14;5.43;;;1.50;;
66429;SDS011;53242;51.694;10.006;2022-07-29T06:54:37;5.47;;;1.50;;
66429;SDS011;53242;51.694;10.006;2022-07-29T06:57:00;5.68;;;1.92;;
66429;SDS011;53242;51.694;10.006;2022-07-29T06:59:23;7.47;;;1.40;;
66429;SDS011;53242;51.694;10.006;2022-07-29T07:01:45;8.75;;;1.60;;
66429;SDS011;53242;51.694;10.006;2022-07-29T07:04:08;8.77;;;1.70;;
66429;SDS011;53242;51.694;10.006;2022-07-29T07:06:30;7.88;;;2.13;;
66429;SDS011;53242;51.694;10.006;2022-07-29T07:08:53;11.60;;;1.85;;
66429;SDS011;53242;51.694;10.006;2022-07-29T07:11:15;9.00;;;1.70;;
66429;SDS011;53242;51.694;10.006;2022-07-29T07:13:38;7.93;;;1.83;;
66429;SDS011;53242;51.694;10.006;2022-07-29T07:16:01;6.28;;;1.52;;
66429;SDS011;53242;51.694;10.006;2022-07-29T07:18:24;8.27;;;2.00;;
66429;SDS011;53242;51.694;10.006;2022-07-29T07:20:46;9.23;;;1.58;;
66429;SDS011;53242;51.694;10.006;2022-07-29T07:23:09;11.75;;;2.15;;
66429;SDS011;53242;51.694;10.006;2022-07-29T07:25:32;7.57;;;1.90;;
66429;SDS011;53242;51.694;10.006;2022-07-29T07:27:55;6.90;;;1.60;;
66429;SDS011;53242;51.694;10.006;2022-07-29T07:30:17;4.88;;;1.70;;
66429;SDS011;53242;51.694;10.006;2022-07-29T07:32:40;7.05;;;1.70;;
66429;SDS011;53242;51.694;10.006;2022-07-29T07:35:05;10.15;;;1.50;;
66429;SDS011;53242;51.694;10.006;2022-07-29T07:37:29;6.50;;;1.88;;
66429;SDS011;53242;51.694;10.006;2022-07-29T07:39:52;7.80;;;1.70;;
66429;SDS011;53242;51.694;10.006;2022-07-29T07:42:15;8.55;;;1.85;;
66429;SDS011;53242;51.694;10.006;2022-07-29T07:44:37;5.03;;;1.58;;
66429;SDS011;53242;51.694;10.006;2022-07-29T07:47:00;7.47;;;1.98;;
66429;SDS011;53242;51.694;10.006;2022-07-29T07:49:23;7.32;;;1.50;;
66429;SDS011;53242;51.694;10.006;2022-07-29T07:51:45;9.63;;;1.70;;
66429;SDS011;53242;51.694;10.006;2022-07-29T07:54:08;5.55;;;1.42;;
66429;SDS011;53242;51.694;10.006;2022-07-29T07:56:30;4.70;;;1.63;;
66429;SDS011;53242;51.694;10.006;2022-07-29T07:58:53;7.25;;;1.60;;
66429;SDS011;53242;51.694;10.006;2022-07-29T08:01:15;6.32;;;1.70;;
66429;SDS011;53242;51.694;10.006;2022-07-29T08:03:40;7.80;;;1.70;;
66429;SDS011;53242;51.694;10.006;2022-07-29T08:06:03;5.20;;;1.70;;
66429;SDS011;53242;51.694;10.006;2022-07-29T08:08:26;3.90;;;1.50;;
66429;SDS011;53242;51.694;10.006;2022-07-29T08:10:48;5.30;;;1.65;;
66429;SDS011;53242;51.694;10.006;2022-07-29T08:13:14;4.68;;;1.90;;
66429;SDS011;53242;51.694;10.006;2022-07-29T08:15:36;4.63;;;1.70;;
66429;SDS011;53242;51.694;10.006;2022-07-29T08:18:01;3.75;;;1.50;;
66429;SDS011;53242;51.694;10.006;2022-07-29T08:20:23;4.85;;;1.83;;
66429;SDS011;53242;51.694;10.006;2022-07-29T08:22:46;3.90;;;1.60;;
66429;SDS011;53242;51.694;10.006;2022-07-29T08:25:08;6.10;;;1.90;;
66429;SDS011;53242;51.694;10.006;2022-07-29T08:27:31;3.92;;;1.80;;
66429;SDS011;53242;51.694;10.006;2022-07-29T08:29:54;6.68;;;1.90;;
66429;SDS011;53242;51.694;10.006;2022-07-29T08:32:17;8.98;;;1.77;;
66429;SDS011;53242;51.694;10.006;2022-07-29T08:34:40;6.15;;;1.70;;
66429;SDS011;53242;51.694;10.006;2022-07-29T08:37:02;6.28;;;1.58;;
66429;SDS011;53242;51.694;10.006;2022-07-29T08:39:25;4.72;;;1.70;;
66429;SDS011;53242;51.694;10.006;2022-07-29T08:41:47;5.15;;;1.75;;
66429;SDS011;53242;51.694;10.006;2022-07-29T08:44:10;8.77;;;1.88;;
66429;SDS011;53242;51.694;10.006;2022-07-29T08:46:33;4.72;;;1.70;;
66429;SDS011;53242;51.694;10.006;2022-07-29T08:48:55;8.27;;;2.72;;
66429;SDS011;53242;51.694;10.006;2022-07-29T08:51:18;7.05;;;2.28;;
66429;SDS011;53242;51.694;10.006;2022-07-29T08:56:04;4.28;;;1.90;;
66429;SDS011;53242;51.694;10.006;2022-07-29T08:58:30;3.75;;;1.80;;
66429;SDS011;53242;51.694;10.006;2022-07-29T09:00:55;6.70;;;2.00;;
66429;SDS011;53242;51.694;10.006;2022-07-29T09:05:41;5.88;;;2.00;;
66429;SDS011;53242;51.694;10.006;2022-07-29T09:08:04;6.07;;;2.65;;
66429;SDS011;53242;51.694;10.006;2022-07-29T09:10:27;4.18;;;2.00;;
66429;SDS011;53242;51.694;10.006;2022-07-29T09:12:49;6.72;;;2.45;;
66429;SDS011;53242;51.694;10.006;2022-07-29T09:15:12;7.72;;;2.05;;
66429;SDS011;53242;51.694;10.006;2022-07-29T09:17:45;8.35;;;2.00;;
66429;SDS011;53242;51.694;10.006;2022-07-29T09:20:10;5.63;;;2.20;;
66429;SDS011;53242;51.694;10.006;2022-07-29T09:22:43;6.00;;;2.55;;
66429;SDS011;53242;51.694;10.006;2022-07-29T09:25:11;4.88;;;2.70;;
66429;SDS011;53242;51.694;10.006;2022-07-29T09:27:34;6.18;;;2.90;;
66429;SDS011;53242;51.694;10.006;2022-07-29T09:30:03;7.85;;;2.50;;
66429;SDS011;53242;51.694;10.006;2022-07-29T09:32:27;7.90;;;2.50;;
66429;SDS011;53242;51.694;10.006;2022-07-29T09:34:50;5.45;;;2.35;;
66429;SDS011;53242;51.694;10.006;2022-07-29T09:37:25;7.90;;;2.45;;
66429;SDS011;53242;51.694;10.006;2022-07-29T09:39:50;7.97;;;2.60;;
66429;SDS011;53242;51.694;10.006;2022-07-29T09:42:14;7.85;;;2.63;;
66429;SDS011;53242;51.694;10.006;2022-07-29T09:44:51;6.63;;;2.83;;
66429;SDS011;53242;51.694;10.006;2022-07-29T09:47:13;8.50;;;3.00;;
66429;SDS011;53242;51.694;10.006;2022-07-29T09:49:56;7.50;;;3.40;;
66429;SDS011;53242;51.694;10.006;2022-07-29T09:52:20;6.78;;;2.70;;
66429;SDS011;53242;51.694;10.006;2022-07-29T09:54:43;7.78;;;3.15;;
66429;SDS011;53242;51.694;10.006;2022-07-29T09:57:07;7.75;;;3.05;;
66429;SDS011;53242;51.694;10.006;2022-07-29T09:59:34;7.78;;;3.15;;
66429;SDS011;53242;51.694;10.006;2022-07-29T10:01:56;7.47;;;3.15;;
66429;SDS011;53242;51.694;10.006;2022-07-29T10:04:19;7.45;;;3.35;;
66429;SDS011;53242;51.694;10.006;2022-07-29T10:06:58;7.03;;;3.13;;
66429;SDS011;53242;51.694;10.006;2022-07-29T10:09:22;9.07;;;3.22;;
66429;SDS011;53242;51.694;10.006;2022-07-29T10:11:47;13.07;;;3.35;;
66429;SDS011;53242;51.694;10.006;2022-07-29T10:14:35;7.90;;;3.10;;
66429;SDS011;53242;51.694;10.006;2022-07-29T10:16:59;6.63;;;3.20;;
66429;SDS011;53242;51.694;10.006;2022-07-29T10:19:23;8.90;;;2.80;;
66429;SDS011;53242;51.694;10.006;2022-07-29T10:21:46;8.45;;;2.80;;
66429;SDS011;53242;51.694;10.006;2022-07-29T10:24:09;7.55;;;2.70;;
66429;SDS011;53242;51.694;10.006;2022-07-29T10:26:33;7.68;;;2.65;;
66429;SDS011;53242;51.694;10.006;2022-07-29T10:28:55;8.02;;;2.38;;
66429;SDS011;53242;51.694;10.006;2022-07-29T10:31:21;4.03;;;2.25;;
66429;SDS011;53242;51.694;10.006;2022-07-29T10:39:11;5.75;;;2.33;;
66429;SDS011;53242;51.694;10.006;2022-07-29T10:44:19;6.03;;;1.90;;
66429;SDS011;53242;51.694;10.006;2022-07-29T10:46:44;5.78;;;1.98;;
66429;SDS011;53242;51.694;10.006;2022-07-29T10:49:11;5.97;;;2.08;;
66429;SDS011;53242;51.694;10.006;2022-07-29T10:54:14;7.03;;;2.22;;
66429;SDS011;53242;51.694;10.006;2022-07-29T10:56:37;7.18;;;2.13;;
66429;SDS011;53242;51.694;10.006;2022-07-29T11:01:39;7.30;;;2.35;;
66429;SDS011;53242;51.694;10.006;2022-07-29T11:04:02;6.05;;;2.20;;
66429;SDS011;53242;51.694;10.006;2022-07-29T11:09:18;9.10;;;2.28;;
66429;SDS011;53242;51.694;10.006;2022-07-29T11:11:41;4.30;;;1.90;;
66429;SDS011;53242;51.694;10.006;2022-07-29T11:14:04;5.47;;;2.13;;
66429;SDS011;53242;51.694;10.006;2022-07-29T11:16:30;6.47;;;2.40;;
66429;SDS011;53242;51.694;10.006;2022-07-29T11:19:24;5.55;;;1.95;;
66429;SDS011;53242;51.694;10.006;2022-07-29T11:21:46;7.20;;;1.90;;
66429;SDS011;53242;51.694;10.006;2022-07-29T11:24:13;5.13;;;2.00;;
66429;SDS011;53242;51.694;10.006;2022-07-29T11:26:37;5.50;;;2.05;;
66429;SDS011;53242;51.694;10.006;2022-07-29T11:29:03;8.20;;;2.35;;
66429;SDS011;53242;51.694;10.006;2022-07-29T11:31:38;9.07;;;2.40;;
66429;SDS011;53242;51.694;10.006;2022-07-29T11:45:21;7.10;;;1.80;;
66429;SDS011;53242;51.694;10.006;2022-07-29T11:50:09;4.57;;;1.67;;
66429;SDS011;53242;51.694;10.006;2022-07-29T11:52:37;9.57;;;1.90;;
66429;SDS011;53242;51.694;10.006;2022-07-29T11:55:09;6.63;;;1.80;;
66429;SDS011;53242;51.694;10.006;2022-07-29T11:57:34;6.07;;;1.73;;
66429;SDS011;53242;51.694;10.006;2022-07-29T11:59:57;5.95;;;1.73;;
66429;SDS011;53242;51.694;10.006;2022-07-29T12:02:20;8.05;;;2.00;;
66429;SDS011;53242;51.694;10.006;2022-07-29T12:07:16;5.22;;;1.90;;
66429;SDS011;53242;51.694;10.006;2022-07-29T12:09:38;7.47;;;1.80;;
66429;SDS011;53242;51.694;10.006;2022-07-29T12:12:01;6.40;;;2.10;;
66429;SDS011;53242;51.694;10.006;2022-07-29T12:14:24;7.82;;;2.30;;
66429;SDS011;53242;51.694;10.006;2022-07-29T12:16:48;5.68;;;1.73;;
66429;SDS011;53242;51.694;10.006;2022-07-29T12:19:10;4.40;;;1.88;;
66429;SDS011;53242;51.694;10.006;2022-07-29T12:24:08;5.35;;;2.00;;
66429;SDS011;53242;51.694;10.006;2022-07-29T12:26:32;6.13;;;1.92;;
66429;SDS011;53242;51.694;10.006;2022-07-29T12:28:55;8.57;;;2.10;;
66429;SDS011;53242;51.694;10.006;2022-07-29T12:31:17;6.65;;;2.05;;
66429;SDS011;53242;51.694;10.006;2022-07-29T12:33:40;4.55;;;1.98;;
66429;SDS011;53242;51.694;10.006;2022-07-29T12:36:03;7.45;;;2.08;;
66429;SDS011;53242;51.694;10.006;2022-07-29T12:38:25;5.78;;;2.00;;
66429;SDS011;53242;51.694;10.006;2022-07-29T12:40:48;9.85;;;2.13;;
66429;SDS011;53242;51.694;10.006;2022-07-29T12:43:19;6.43;;;1.90;;
66429;SDS011;53242;51.694;10.006;2022-07-29T12:45:45;9.13;;;2.25;;
66429;SDS011;53242;51.694;10.006;2022-07-29T12:48:09;7.82;;;2.00;;
66429;SDS011;53242;51.694;10.006;2022-07-29T12:50:32;9.88;;;2.30;;
66429;SDS011;53242;51.694;10.006;2022-07-29T12:53:03;5.53;;;2.30;;
66429;SDS011;53242;51.694;10.006;2022-07-29T12:58:13;6.25;;;2.20;;
66429;SDS011;53242;51.694;10.006;2022-07-29T13:00:36;7.03;;;2.22;;
66429;SDS011;53242;51.694;10.006;2022-07-29T13:02:59;8.45;;;2.30;;
66429;SDS011;53242;51.694;10.006;2022-07-29T13:07:46;5.75;;;2.30;;
66429;SDS011;53242;51.694;10.006;2022-07-29T13:10:15;6.47;;;2.38;;
66429;SDS011;53242;51.694;10.006;2022-07-29T13:13:00;8.68;;;2.33;;
66429;SDS011;53242;51.694;10.006;2022-07-29T13:15:25;7.65;;;2.17;;
66429;SDS011;53242;51.694;10.006;2022-07-29T13:17:48;6.20;;;2.35;;
66429;SDS011;53242;51.694;10.006;2022-07-29T13:20:11;9.98;;;2.88;;
66429;SDS011;53242;51.694;10.006;2022-07-29T13:22:35;7.72;;;2.55;;
66429;SDS011;53242;51.694;10.006;2022-07-29T13:24:58;7.70;;;2.63;;
66429;SDS011;53242;51.694;10.006;2022-07-29T13:27:25;4.75;;;2.60;;
66429;SDS011;53242;51.694;10.006;2022-07-29T13:29:49;8.10;;;2.50;;
66429;SDS011;53242;51.694;10.006;2022-07-29T13:32:14;5.43;;;2.40;;
66429;SDS011;53242;51.694;10.006;2022-07-29T13:34:37;11.00;;;2.53;;
66429;SDS011;53242;51.694;10.006;2022-07-29T13:36:59;5.60;;;2.67;;
66429;SDS011;53242;51.694;10.006;2022-07-29T13:39:22;7.22;;;2.80;;
66429;SDS011;53242;51.694;10.006;2022-07-29T13:41:44;8.57;;;2.58;;
66429;SDS011;53242;51.694;10.006;2022-07-29T13:44:07;8.50;;;2.50;;
66429;SDS011;53242;51.694;10.006;2022-07-29T13:46:29;9.43;;;3.35;;
66429;SDS011;53242;51.694;10.006;2022-07-29T13:48:53;9.30;;;2.88;;
66429;SDS011;53242;51.694;10.006;2022-07-29T13:51:15;5.55;;;2.40;;
66429;SDS011;53242;51.694;10.006;2022-07-29T13:53:37;6.18;;;2.63;;
66429;SDS011;53242;51.694;10.006;2022-07-29T13:56:00;7.28;;;2.40;;
66429;SDS011;53242;51.694;10.006;2022-07-29T13:58:23;8.02;;;2.83;;
66429;SDS011;53242;51.694;10.006;2022-07-29T14:00:45;7.00;;;2.75;;
66429;SDS011;53242;51.694;10.006;2022-07-29T14:03:08;6.30;;;2.65;;
66429;SDS011;53242;51.694;10.006;2022-07-29T14:05:31;7.93;;;2.70;;
66429;SDS011;53242;51.694;10.006;2022-07-29T14:07:54;7.75;;;2.70;;
66429;SDS011;53242;51.694;10.006;2022-07-29T14:10:16;6.78;;;2.92;;
66429;SDS011;53242;51.694;10.006;2022-07-29T14:12:39;6.32;;;3.08;;
66429;SDS011;53242;51.694;10.006;2022-07-29T14:15:03;7.25;;;2.92;;
66429;SDS011;53242;51.694;10.006;2022-07-29T14:17:26;10.02;;;2.80;;
66429;SDS011;53242;51.694;10.006;2022-07-29T14:19:49;9.80;;;3.13;;
66429;SDS011;53242;51.694;10.006;2022-07-29T14:22:11;5.95;;;2.72;;
66429;SDS011;53242;51.694;10.006;2022-07-29T14:24:34;6.40;;;3.28;;
66429;SDS011;53242;51.694;10.006;2022-07-29T14:26:57;8.68;;;2.78;;
66429;SDS011;53242;51.694;10.006;2022-07-29T14:29:19;6.88;;;2.83;;
66429;SDS011;53242;51.694;10.006;2022-07-29T14:31:42;7.95;;;3.25;;
66429;SDS011;53242;51.694;10.006;2022-07-29T14:36:27;8.47;;;3.20;;
66429;SDS011;53242;51.694;10.006;2022-07-29T14:38:50;12.32;;;3.50;;
66429;SDS011;53242;51.694;10.006;2022-07-29T14:41:12;9.20;;;3.67;;
66429;SDS011;53242;51.694;10.006;2022-07-29T14:43:35;8.48;;;3.42;;
66429;SDS011;53242;51.694;10.006;2022-07-29T14:45:57;6.28;;;3.25;;
66429;SDS011;53242;51.694;10.006;2022-07-29T14:48:20;7.80;;;3.30;;
66429;SDS011;53242;51.694;10.006;2022-07-29T14:50:42;12.52;;;3.20;;
66429;SDS011;53242;51.694;10.006;2022-07-29T14:53:04;8.15;;;3.42;;
66429;SDS011;53242;51.694;10.006;2022-07-29T14:55:27;7.53;;;3.22;;
66429;SDS011;53242;51.694;10.006;2022-07-29T14:57:49;9.15;;;3.50;;
66429;SDS011;53242;51.694;10.006;2022-07-29T15:00:12;7.63;;;3.45;;
66429;SDS011;53242;51.694;10.006;2022-07-29T15:02:34;7.05;;;2.90;;
66429;SDS011;53242;51.694;10.006;2022-07-29T15:04:57;7.55;;;3.17;;
66429;SDS011;53242;51.694;10.006;2022-07-29T15:07:19;7.25;;;3.35;;
66429;SDS011;53242;51.694;10.006;2022-07-29T15:09:42;8.80;;;3.70;;
66429;SDS011;53242;51.694;10.006;2022-07-29T15:12:07;8.32;;;3.80;;
66429;SDS011;53242;51.694;10.006;2022-07-29T15:14:30;8.65;;;3.58;;
66429;SDS011;53242;51.694;10.006;2022-07-29T15:19:15;9.53;;;3.53;;
66429;SDS011;53242;51.694;10.006;2022-07-29T15:21:38;9.77;;;3.35;;
66429;SDS011;53242;51.694;10.006;2022-07-29T15:24:01;7.82;;;3.10;;
66429;SDS011;53242;51.694;10.006;2022-07-29T15:26:23;8.25;;;3.17;;